sensor_id;sensor_type;location;lat;lon;timestamp;P1;durP1;ratioP1;P2;durP2;ratioP2
44078;SDS011;29744;49.078;12.878;2023-08-08T00:03:56;0.20;;;0.20;;
44078;SDS011;29744;49.078;12.878;2023-08-08T00:08:56;0.10;;;0.10;;
44078;SDS011;29744;49.078;12.878;2023-08-08T00:13:57;0.30;;;0.15;;
44078;SDS011;29744;49.078;12.878;2023-08-08T00:18:57;0.28;;;0.20;;
44078;SDS011;29744;49.078;12.878;2023-08-08T00:23:57;0.03;;;0.03;;
44078;SDS011;29744;49.078;12.878;2023-08-08T00:28:58;0.45;;;0.17;;
44078;SDS011;29744;49.078;12.878;2023-08-08T00:33:58;0.10;;;0.10;;
44078;SDS011;29744;49.078;12.878;2023-08-08T00:38:58;0.20;;;0.20;;
44078;SDS011;29744;49.078;12.878;2023-08-08T00:43:59;0.57;;;0.20;;
44078;SDS011;29744;49.078;12.878;2023-08-08T00:48:59;0.20;;;0.10;;
44078;SDS011;29744;49.078;12.878;2023-08-08T00:53:59;0.20;;;0.20;;
44078;SDS011;29744;49.078;12.878;2023-08-08T00:59:00;0.20;;;0.20;;
44078;SDS011;29744;49.078;12.878;2023-08-08T01:04:00;0.10;;;0.10;;
44078;SDS011;29744;49.078;12.878;2023-08-08T01:09:08;0.20;;;0.20;;
44078;SDS011;29744;49.078;12.878;2023-08-08T01:14:11;0.22;;;0.20;;
44078;SDS011;29744;49.078;12.878;2023-08-08T01:19:11;0.20;;;0.10;;
44078;SDS011;29744;49.078;12.878;2023-08-08T01:24:18;0.20;;;0.10;;
44078;SDS011;29744;49.078;12.878;2023-08-08T01:29:20;0.40;;;0.30;;
44078;SDS011;29744;49.078;12.878;2023-08-08T01:34:21;0.10;;;0.10;;
44078;SDS011;29744;49.078;12.878;2023-08-08T01:39:24;0.50;;;0.20;;
44078;SDS011;29744;49.078;12.878;2023-08-08T01:44:26;0.38;;;0.20;;
44078;SDS011;29744;49.078;12.878;2023-08-08T01:49:28;0.55;;;0.20;;
44078;SDS011;29744;49.078;12.878;2023-08-08T01:54:28;0.20;;;0.20;;
44078;SDS011;29744;49.078;12.878;2023-08-08T01:59:29;0.35;;;0.30;;
44078;SDS011;29744;49.078;12.878;2023-08-08T02:04:29;0.25;;;0.13;;
44078;SDS011;29744;49.078;12.878;2023-08-08T02:09:29;0.30;;;0.20;;
44078;SDS011;29744;49.078;12.878;2023-08-08T02:14:29;0.52;;;0.20;;
44078;SDS011;29744;49.078;12.878;2023-08-08T02:19:30;0.60;;;0.20;;
44078;SDS011;29744;49.078;12.878;2023-08-08T02:24:30;0.00;;;0.00;;
44078;SDS011;29744;49.078;12.878;2023-08-08T02:29:30;0.27;;;0.20;;
44078;SDS011;29744;49.078;12.878;2023-08-08T02:34:31;0.00;;;0.00;;
44078;SDS011;29744;49.078;12.878;2023-08-08T02:39:31;0.22;;;0.20;;
44078;SDS011;29744;49.078;12.878;2023-08-08T02:44:31;0.20;;;0.20;;
44078;SDS011;29744;49.078;12.878;2023-08-08T02:49:32;0.65;;;0.20;;
44078;SDS011;29744;49.078;12.878;2023-08-08T02:54:33;0.20;;;0.20;;
44078;SDS011;29744;49.078;12.878;2023-08-08T02:59:33;0.20;;;0.20;;
44078;SDS011;29744;49.078;12.878;2023-08-08T03:04:34;0.20;;;0.20;;
44078;SDS011;29744;49.078;12.878;2023-08-08T03:09:34;0.10;;;0.10;;
44078;SDS011;29744;49.078;12.878;2023-08-08T03:14:34;0.10;;;0.10;;
44078;SDS011;29744;49.078;12.878;2023-08-08T03:19:35;0.45;;;0.20;;
44078;SDS011;29744;49.078;12.878;2023-08-08T03:24:35;0.88;;;0.22;;
44078;SDS011;29744;49.078;12.878;2023-08-08T03:29:35;0.20;;;0.20;;
44078;SDS011;29744;49.078;12.878;2023-08-08T03:34:35;0.35;;;0.20;;
44078;SDS011;29744;49.078;12.878;2023-08-08T03:39:36;0.10;;;0.10;;
44078;SDS011;29744;49.078;12.878;2023-08-08T03:44:36;0.20;;;0.15;;
44078;SDS011;29744;49.078;12.878;2023-08-08T03:49:36;0.17;;;0.17;;
44078;SDS011;29744;49.078;12.878;2023-08-08T03:54:37;0.32;;;0.22;;
44078;SDS011;29744;49.078;12.878;2023-08-08T03:59:37;0.22;;;0.20;;
44078;SDS011;29744;49.078;12.878;2023-08-08T04:04:37;0.20;;;0.10;;
44078;SDS011;29744;49.078;12.878;2023-08-08T04:09:39;0.10;;;0.10;;
44078;SDS011;29744;49.078;12.878;2023-08-08T04:14:39;0.20;;;0.20;;
44078;SDS011;29744;49.078;12.878;2023-08-08T04:19:39;0.13;;;0.10;;
44078;SDS011;29744;49.078;12.878;2023-08-08T04:24:40;0.10;;;0.10;;
44078;SDS011;29744;49.078;12.878;2023-08-08T04:29:40;0.20;;;0.20;;
44078;SDS011;29744;49.078;12.878;2023-08-08T04:34:40;0.20;;;0.20;;
44078;SDS011;29744;49.078;12.878;2023-08-08T04:39:41;0.20;;;0.20;;
44078;SDS011;29744;49.078;12.878;2023-08-08T04:44:41;0.30;;;0.20;;
44078;SDS011;29744;49.078;12.878;2023-08-08T04:49:41;0.20;;;0.10;;
44078;SDS011;29744;49.078;12.878;2023-08-08T04:54:41;0.22;;;0.22;;
44078;SDS011;29744;49.078;12.878;2023-08-08T04:59:42;0.30;;;0.10;;
44078;SDS011;29744;49.078;12.878;2023-08-08T05:04:42;0.20;;;0.15;;
44078;SDS011;29744;49.078;12.878;2023-08-08T05:09:43;0.25;;;0.20;;
44078;SDS011;29744;49.078;12.878;2023-08-08T05:14:43;0.10;;;0.10;;
44078;SDS011;29744;49.078;12.878;2023-08-08T05:19:43;0.30;;;0.20;;
44078;SDS011;29744;49.078;12.878;2023-08-08T05:24:43;0.20;;;0.20;;
44078;SDS011;29744;49.078;12.878;2023-08-08T05:29:44;0.20;;;0.20;;
44078;SDS011;29744;49.078;12.878;2023-08-08T05:34:44;0.22;;;0.20;;
44078;SDS011;29744;49.078;12.878;2023-08-08T05:39:44;0.20;;;0.20;;
44078;SDS011;29744;49.078;12.878;2023-08-08T05:44:45;0.30;;;0.20;;
44078;SDS011;29744;49.078;12.878;2023-08-08T05:49:45;0.13;;;0.13;;
44078;SDS011;29744;49.078;12.878;2023-08-08T05:54:45;0.17;;;0.17;;
44078;SDS011;29744;49.078;12.878;2023-08-08T05:59:46;0.10;;;0.10;;
44078;SDS011;29744;49.078;12.878;2023-08-08T06:04:46;0.17;;;0.10;;
44078;SDS011;29744;49.078;12.878;2023-08-08T06:09:46;0.40;;;0.17;;
44078;SDS011;29744;49.078;12.878;2023-08-08T06:14:47;0.20;;;0.20;;
44078;SDS011;29744;49.078;12.878;2023-08-08T06:19:48;0.10;;;0.05;;
44078;SDS011;29744;49.078;12.878;2023-08-08T06:24:49;0.28;;;0.20;;
44078;SDS011;29744;49.078;12.878;2023-08-08T06:29:50;0.10;;;0.10;;
44078;SDS011;29744;49.078;12.878;2023-08-08T06:34:50;0.20;;;0.20;;
44078;SDS011;29744;49.078;12.878;2023-08-08T06:39:50;0.40;;;0.30;;
44078;SDS011;29744;49.078;12.878;2023-08-08T06:44:51;0.20;;;0.20;;
44078;SDS011;29744;49.078;12.878;2023-08-08T06:49:51;0.20;;;0.20;;
44078;SDS011;29744;49.078;12.878;2023-08-08T06:54:51;0.15;;;0.15;;
44078;SDS011;29744;49.078;12.878;2023-08-08T06:59:52;0.15;;;0.10;;
44078;SDS011;29744;49.078;12.878;2023-08-08T07:04:52;0.20;;;0.20;;
44078;SDS011;29744;49.078;12.878;2023-08-08T07:09:53;0.22;;;0.10;;
44078;SDS011;29744;49.078;12.878;2023-08-08T07:14:53;0.25;;;0.25;;
44078;SDS011;29744;49.078;12.878;2023-08-08T07:19:53;0.35;;;0.17;;
44078;SDS011;29744;49.078;12.878;2023-08-08T07:24:53;0.20;;;0.20;;
44078;SDS011;29744;49.078;12.878;2023-08-08T07:29:54;0.20;;;0.10;;
44078;SDS011;29744;49.078;12.878;2023-08-08T07:34:54;0.10;;;0.10;;
44078;SDS011;29744;49.078;12.878;2023-08-08T07:39:54;0.27;;;0.20;;
44078;SDS011;29744;49.078;12.878;2023-08-08T07:44:55;0.20;;;0.20;;
44078;SDS011;29744;49.078;12.878;2023-08-08T07:49:55;0.32;;;0.20;;
44078;SDS011;29744;49.078;12.878;2023-08-08T07:54:55;0.15;;;0.15;;
44078;SDS011;29744;49.078;12.878;2023-08-08T07:59:56;0.30;;;0.20;;
44078;SDS011;29744;49.078;12.878;2023-08-08T08:04:56;0.20;;;0.20;;
44078;SDS011;29744;49.078;12.878;2023-08-08T08:09:56;0.20;;;0.10;;
44078;SDS011;29744;49.078;12.878;2023-08-08T08:14:56;0.17;;;0.17;;
44078;SDS011;29744;49.078;12.878;2023-08-08T08:19:57;0.20;;;0.20;;
44078;SDS011;29744;49.078;12.878;2023-08-08T08:24:58;0.20;;;0.20;;
44078;SDS011;29744;49.078;12.878;2023-08-08T08:29:58;0.28;;;0.22;;
44078;SDS011;29744;49.078;12.878;2023-08-08T08:34:59;0.10;;;0.10;;
44078;SDS011;29744;49.078;12.878;2023-08-08T08:40:00;0.10;;;0.10;;
44078;SDS011;29744;49.078;12.878;2023-08-08T08:45:01;0.30;;;0.20;;
44078;SDS011;29744;49.078;12.878;2023-08-08T08:50:03;0.20;;;0.20;;
44078;SDS011;29744;49.078;12.878;2023-08-08T08:55:04;0.10;;;0.10;;
44078;SDS011;29744;49.078;12.878;2023-08-08T09:00:05;0.30;;;0.30;;
44078;SDS011;29744;49.078;12.878;2023-08-08T09:05:06;0.10;;;0.10;;
44078;SDS011;29744;49.078;12.878;2023-08-08T09:10:07;0.20;;;0.20;;
44078;SDS011;29744;49.078;12.878;2023-08-08T09:15:08;0.20;;;0.20;;
44078;SDS011;29744;49.078;12.878;2023-08-08T09:20:10;0.10;;;0.10;;
44078;SDS011;29744;49.078;12.878;2023-08-08T09:25:11;0.22;;;0.22;;
44078;SDS011;29744;49.078;12.878;2023-08-08T09:30:12;0.22;;;0.20;;
44078;SDS011;29744;49.078;12.878;2023-08-08T09:35:12;0.20;;;0.20;;
44078;SDS011;29744;49.078;12.878;2023-08-08T09:40:13;0.10;;;0.10;;
44078;SDS011;29744;49.078;12.878;2023-08-08T09:45:13;0.30;;;0.20;;
44078;SDS011;29744;49.078;12.878;2023-08-08T09:50:13;0.20;;;0.20;;
44078;SDS011;29744;49.078;12.878;2023-08-08T09:55:14;0.10;;;0.10;;
44078;SDS011;29744;49.078;12.878;2023-08-08T10:00:15;0.20;;;0.20;;
44078;SDS011;29744;49.078;12.878;2023-08-08T10:05:16;0.10;;;0.10;;
44078;SDS011;29744;49.078;12.878;2023-08-08T10:10:16;0.25;;;0.20;;
44078;SDS011;29744;49.078;12.878;2023-08-08T10:15:18;0.10;;;0.10;;
44078;SDS011;29744;49.078;12.878;2023-08-08T10:20:19;0.20;;;0.17;;
44078;SDS011;29744;49.078;12.878;2023-08-08T10:30:20;1.13;;;0.28;;
44078;SDS011;29744;49.078;12.878;2023-08-08T10:35:20;0.25;;;0.25;;
44078;SDS011;29744;49.078;12.878;2023-08-08T10:40:20;0.30;;;0.28;;
44078;SDS011;29744;49.078;12.878;2023-08-08T10:45:21;0.38;;;0.30;;
44078;SDS011;29744;49.078;12.878;2023-08-08T10:50:30;0.70;;;0.50;;
44078;SDS011;29744;49.078;12.878;2023-08-08T10:55:31;0.85;;;0.50;;
44078;SDS011;29744;49.078;12.878;2023-08-08T11:00:34;0.43;;;0.30;;
44078;SDS011;29744;49.078;12.878;2023-08-08T11:05:39;0.80;;;0.50;;
44078;SDS011;29744;49.078;12.878;2023-08-08T11:10:44;0.38;;;0.30;;
44078;SDS011;29744;49.078;12.878;2023-08-08T11:15:44;0.35;;;0.30;;
44078;SDS011;29744;49.078;12.878;2023-08-08T11:20:45;0.88;;;0.30;;
44078;SDS011;29744;49.078;12.878;2023-08-08T11:25:45;0.45;;;0.40;;
44078;SDS011;29744;49.078;12.878;2023-08-08T11:30:45;0.77;;;0.57;;
44078;SDS011;29744;49.078;12.878;2023-08-08T11:35:49;0.80;;;0.40;;
44078;SDS011;29744;49.078;12.878;2023-08-08T11:40:50;0.52;;;0.40;;
44078;SDS011;29744;49.078;12.878;2023-08-08T11:45:52;1.45;;;0.40;;
44078;SDS011;29744;49.078;12.878;2023-08-08T11:50:53;0.43;;;0.30;;
44078;SDS011;29744;49.078;12.878;2023-08-08T11:55:54;0.60;;;0.40;;
44078;SDS011;29744;49.078;12.878;2023-08-08T12:00:54;0.85;;;0.35;;
44078;SDS011;29744;49.078;12.878;2023-08-08T12:05:56;0.70;;;0.40;;
44078;SDS011;29744;49.078;12.878;2023-08-08T12:10:56;1.70;;;0.50;;
44078;SDS011;29744;49.078;12.878;2023-08-08T12:15:58;1.67;;;0.40;;
44078;SDS011;29744;49.078;12.878;2023-08-08T12:20:59;0.50;;;0.40;;
44078;SDS011;29744;49.078;12.878;2023-08-08T12:25:59;1.45;;;0.45;;
44078;SDS011;29744;49.078;12.878;2023-08-08T12:31:00;0.68;;;0.50;;
44078;SDS011;29744;49.078;12.878;2023-08-08T12:36:00;1.02;;;0.40;;
44078;SDS011;29744;49.078;12.878;2023-08-08T12:41:01;0.80;;;0.50;;
44078;SDS011;29744;49.078;12.878;2023-08-08T12:46:02;0.60;;;0.40;;
44078;SDS011;29744;49.078;12.878;2023-08-08T12:51:02;0.40;;;0.40;;
44078;SDS011;29744;49.078;12.878;2023-08-08T12:56:03;0.47;;;0.40;;
44078;SDS011;29744;49.078;12.878;2023-08-08T13:01:03;0.57;;;0.35;;
44078;SDS011;29744;49.078;12.878;2023-08-08T13:06:04;0.47;;;0.38;;
44078;SDS011;29744;49.078;12.878;2023-08-08T13:11:04;0.75;;;0.43;;
44078;SDS011;29744;49.078;12.878;2023-08-08T13:16:05;0.85;;;0.43;;
44078;SDS011;29744;49.078;12.878;2023-08-08T13:21:05;0.55;;;0.40;;
44078;SDS011;29744;49.078;12.878;2023-08-08T13:26:06;0.40;;;0.40;;
44078;SDS011;29744;49.078;12.878;2023-08-08T13:31:07;0.93;;;0.50;;
44078;SDS011;29744;49.078;12.878;2023-08-08T13:36:08;2.42;;;0.82;;
44078;SDS011;29744;49.078;12.878;2023-08-08T13:41:08;1.88;;;0.80;;
44078;SDS011;29744;49.078;12.878;2023-08-08T13:46:08;2.38;;;0.90;;
44078;SDS011;29744;49.078;12.878;2023-08-08T13:51:09;1.70;;;1.00;;
44078;SDS011;29744;49.078;12.878;2023-08-08T13:56:10;2.55;;;0.80;;
44078;SDS011;29744;49.078;12.878;2023-08-08T14:01:11;1.42;;;0.70;;
44078;SDS011;29744;49.078;12.878;2023-08-08T14:06:11;2.88;;;1.08;;
44078;SDS011;29744;49.078;12.878;2023-08-08T14:11:11;1.40;;;0.75;;
44078;SDS011;29744;49.078;12.878;2023-08-08T14:16:11;2.35;;;0.73;;
44078;SDS011;29744;49.078;12.878;2023-08-08T14:21:12;1.88;;;0.82;;
44078;SDS011;29744;49.078;12.878;2023-08-08T14:26:14;2.58;;;0.80;;
44078;SDS011;29744;49.078;12.878;2023-08-08T14:31:14;1.23;;;0.80;;
44078;SDS011;29744;49.078;12.878;2023-08-08T14:36:14;2.05;;;1.00;;
44078;SDS011;29744;49.078;12.878;2023-08-08T14:41:15;1.48;;;0.80;;
44078;SDS011;29744;49.078;12.878;2023-08-08T14:46:15;1.45;;;0.77;;
44078;SDS011;29744;49.078;12.878;2023-08-08T14:51:15;2.47;;;0.90;;
44078;SDS011;29744;49.078;12.878;2023-08-08T14:56:19;1.58;;;0.90;;
44078;SDS011;29744;49.078;12.878;2023-08-08T15:01:19;1.42;;;0.70;;
44078;SDS011;29744;49.078;12.878;2023-08-08T15:06:20;2.75;;;0.90;;
44078;SDS011;29744;49.078;12.878;2023-08-08T15:11:20;1.85;;;0.80;;
44078;SDS011;29744;49.078;12.878;2023-08-08T15:16:20;1.15;;;0.60;;
44078;SDS011;29744;49.078;12.878;2023-08-08T15:21:20;2.17;;;0.80;;
44078;SDS011;29744;49.078;12.878;2023-08-08T15:26:21;1.63;;;0.85;;
44078;SDS011;29744;49.078;12.878;2023-08-08T15:31:22;3.08;;;0.98;;
44078;SDS011;29744;49.078;12.878;2023-08-08T15:36:23;1.70;;;0.90;;
44078;SDS011;29744;49.078;12.878;2023-08-08T15:41:23;2.22;;;0.82;;
44078;SDS011;29744;49.078;12.878;2023-08-08T15:46:23;1.65;;;0.80;;
44078;SDS011;29744;49.078;12.878;2023-08-08T15:51:24;1.77;;;0.75;;
44078;SDS011;29744;49.078;12.878;2023-08-08T15:56:24;1.33;;;0.75;;
44078;SDS011;29744;49.078;12.878;2023-08-08T16:01:24;1.55;;;0.70;;
44078;SDS011;29744;49.078;12.878;2023-08-08T16:06:25;1.42;;;0.90;;
44078;SDS011;29744;49.078;12.878;2023-08-08T16:11:25;1.70;;;0.90;;
44078;SDS011;29744;49.078;12.878;2023-08-08T16:16:25;1.60;;;0.70;;
44078;SDS011;29744;49.078;12.878;2023-08-08T16:21:26;1.77;;;0.70;;
44078;SDS011;29744;49.078;12.878;2023-08-08T16:26:27;1.65;;;0.85;;
44078;SDS011;29744;49.078;12.878;2023-08-08T16:31:27;1.55;;;0.80;;
44078;SDS011;29744;49.078;12.878;2023-08-08T16:36:27;1.40;;;0.70;;
44078;SDS011;29744;49.078;12.878;2023-08-08T16:41:28;1.73;;;0.88;;
44078;SDS011;29744;49.078;12.878;2023-08-08T16:46:29;2.03;;;0.80;;
44078;SDS011;29744;49.078;12.878;2023-08-08T16:51:29;2.30;;;0.90;;
44078;SDS011;29744;49.078;12.878;2023-08-08T16:56:29;1.27;;;0.88;;
44078;SDS011;29744;49.078;12.878;2023-08-08T17:01:30;1.63;;;0.73;;
44078;SDS011;29744;49.078;12.878;2023-08-08T17:06:30;1.83;;;0.90;;
44078;SDS011;29744;49.078;12.878;2023-08-08T17:11:32;1.45;;;0.80;;
44078;SDS011;29744;49.078;12.878;2023-08-08T17:16:32;1.15;;;0.73;;
44078;SDS011;29744;49.078;12.878;2023-08-08T17:21:33;0.90;;;0.63;;
44078;SDS011;29744;49.078;12.878;2023-08-08T17:26:33;1.50;;;0.80;;
44078;SDS011;29744;49.078;12.878;2023-08-08T17:31:33;1.30;;;0.70;;
44078;SDS011;29744;49.078;12.878;2023-08-08T17:36:35;1.63;;;0.70;;
44078;SDS011;29744;49.078;12.878;2023-08-08T17:41:35;2.03;;;0.90;;
44078;SDS011;29744;49.078;12.878;2023-08-08T17:46:36;1.05;;;0.60;;
44078;SDS011;29744;49.078;12.878;2023-08-08T17:51:36;2.20;;;0.95;;
44078;SDS011;29744;49.078;12.878;2023-08-08T17:56:36;1.63;;;0.80;;
44078;SDS011;29744;49.078;12.878;2023-08-08T18:01:36;1.65;;;0.90;;
44078;SDS011;29744;49.078;12.878;2023-08-08T18:06:37;1.63;;;0.80;;
44078;SDS011;29744;49.078;12.878;2023-08-08T18:11:38;1.70;;;0.88;;
44078;SDS011;29744;49.078;12.878;2023-08-08T18:16:38;1.13;;;0.70;;
44078;SDS011;29744;49.078;12.878;2023-08-08T18:21:39;1.30;;;0.80;;
44078;SDS011;29744;49.078;12.878;2023-08-08T18:26:39;0.90;;;0.52;;
44078;SDS011;29744;49.078;12.878;2023-08-08T18:31:39;1.58;;;0.80;;
44078;SDS011;29744;49.078;12.878;2023-08-08T18:36:40;2.00;;;0.82;;
44078;SDS011;29744;49.078;12.878;2023-08-08T18:41:40;1.17;;;0.63;;
44078;SDS011;29744;49.078;12.878;2023-08-08T18:46:40;1.15;;;0.80;;
44078;SDS011;29744;49.078;12.878;2023-08-08T18:51:41;1.70;;;0.77;;
44078;SDS011;29744;49.078;12.878;2023-08-08T18:56:41;1.47;;;0.90;;
44078;SDS011;29744;49.078;12.878;2023-08-08T19:01:41;1.25;;;0.80;;
44078;SDS011;29744;49.078;12.878;2023-08-08T19:06:41;1.70;;;0.90;;
44078;SDS011;29744;49.078;12.878;2023-08-08T19:11:42;1.55;;;0.68;;
44078;SDS011;29744;49.078;12.878;2023-08-08T19:16:42;1.75;;;0.98;;
44078;SDS011;29744;49.078;12.878;2023-08-08T19:21:42;1.38;;;0.68;;
44078;SDS011;29744;49.078;12.878;2023-08-08T19:26:43;1.20;;;0.73;;
44078;SDS011;29744;49.078;12.878;2023-08-08T19:31:43;1.13;;;0.63;;
44078;SDS011;29744;49.078;12.878;2023-08-08T19:36:43;1.05;;;0.65;;
44078;SDS011;29744;49.078;12.878;2023-08-08T19:41:44;2.22;;;0.65;;
44078;SDS011;29744;49.078;12.878;2023-08-08T19:46:44;0.82;;;0.60;;
44078;SDS011;29744;49.078;12.878;2023-08-08T19:51:45;1.27;;;0.68;;
44078;SDS011;29744;49.078;12.878;2023-08-08T19:56:45;1.67;;;0.95;;
44078;SDS011;29744;49.078;12.878;2023-08-08T20:01:45;1.25;;;0.77;;
44078;SDS011;29744;49.078;12.878;2023-08-08T20:06:45;1.20;;;0.70;;
44078;SDS011;29744;49.078;12.878;2023-08-08T20:11:46;1.33;;;0.70;;
44078;SDS011;29744;49.078;12.878;2023-08-08T20:16:46;1.45;;;0.70;;
44078;SDS011;29744;49.078;12.878;2023-08-08T20:21:46;0.73;;;0.57;;
44078;SDS011;29744;49.078;12.878;2023-08-08T20:26:47;1.65;;;0.90;;
44078;SDS011;29744;49.078;12.878;2023-08-08T20:31:47;1.58;;;0.70;;
44078;SDS011;29744;49.078;12.878;2023-08-08T20:36:47;1.42;;;0.80;;
44078;SDS011;29744;49.078;12.878;2023-08-08T20:41:48;1.05;;;0.68;;
44078;SDS011;29744;49.078;12.878;2023-08-08T20:46:48;0.70;;;0.60;;
44078;SDS011;29744;49.078;12.878;2023-08-08T20:51:49;1.13;;;0.60;;
44078;SDS011;29744;49.078;12.878;2023-08-08T20:56:54;1.30;;;0.68;;
44078;SDS011;29744;49.078;12.878;2023-08-08T21:01:56;0.90;;;0.60;;
44078;SDS011;29744;49.078;12.878;2023-08-08T21:06:56;1.30;;;0.77;;
44078;SDS011;29744;49.078;12.878;2023-08-08T21:11:57;1.20;;;0.60;;
44078;SDS011;29744;49.078;12.878;2023-08-08T21:16:57;1.08;;;0.60;;
44078;SDS011;29744;49.078;12.878;2023-08-08T21:21:57;1.13;;;0.70;;
44078;SDS011;29744;49.078;12.878;2023-08-08T21:26:58;1.10;;;0.60;;
44078;SDS011;29744;49.078;12.878;2023-08-08T21:31:58;1.38;;;0.63;;
44078;SDS011;29744;49.078;12.878;2023-08-08T21:36:58;0.77;;;0.60;;
44078;SDS011;29744;49.078;12.878;2023-08-08T21:41:59;1.00;;;0.70;;
44078;SDS011;29744;49.078;12.878;2023-08-08T21:46:59;1.65;;;0.80;;
44078;SDS011;29744;49.078;12.878;2023-08-08T21:51:59;0.98;;;0.50;;
44078;SDS011;29744;49.078;12.878;2023-08-08T21:57:00;1.00;;;0.60;;
44078;SDS011;29744;49.078;12.878;2023-08-08T22:02:00;1.58;;;0.55;;
44078;SDS011;29744;49.078;12.878;2023-08-08T22:07:01;1.73;;;0.57;;
44078;SDS011;29744;49.078;12.878;2023-08-08T22:12:01;1.30;;;0.63;;
44078;SDS011;29744;49.078;12.878;2023-08-08T22:17:01;1.50;;;0.60;;
44078;SDS011;29744;49.078;12.878;2023-08-08T22:22:02;0.65;;;0.52;;
44078;SDS011;29744;49.078;12.878;2023-08-08T22:27:03;0.88;;;0.50;;
44078;SDS011;29744;49.078;12.878;2023-08-08T22:32:04;1.15;;;0.63;;
44078;SDS011;29744;49.078;12.878;2023-08-08T22:37:04;0.68;;;0.60;;
44078;SDS011;29744;49.078;12.878;2023-08-08T22:42:04;1.52;;;0.57;;
44078;SDS011;29744;49.078;12.878;2023-08-08T22:47:05;0.80;;;0.50;;
44078;SDS011;29744;49.078;12.878;2023-08-08T22:52:05;1.08;;;0.70;;
44078;SDS011;29744;49.078;12.878;2023-08-08T22:57:05;1.20;;;0.60;;
44078;SDS011;29744;49.078;12.878;2023-08-08T23:02:06;1.40;;;0.60;;
44078;SDS011;29744;49.078;12.878;2023-08-08T23:07:06;1.37;;;0.60;;
44078;SDS011;29744;49.078;12.878;2023-08-08T23:12:07;1.63;;;0.60;;
44078;SDS011;29744;49.078;12.878;2023-08-08T23:17:07;0.77;;;0.60;;
44078;SDS011;29744;49.078;12.878;2023-08-08T23:22:07;1.05;;;0.68;;
44078;SDS011;29744;49.078;12.878;2023-08-08T23:27:08;0.85;;;0.65;;
44078;SDS011;29744;49.078;12.878;2023-08-08T23:32:08;0.60;;;0.50;;
44078;SDS011;29744;49.078;12.878;2023-08-08T23:37:09;1.40;;;0.60;;
44078;SDS011;29744;49.078;12.878;2023-08-08T23:42:09;0.75;;;0.50;;
44078;SDS011;29744;49.078;12.878;2023-08-08T23:47:09;1.10;;;0.57;;
44078;SDS011;29744;49.078;12.878;2023-08-08T23:52:10;0.45;;;0.45;;
44078;SDS011;29744;49.078;12.878;2023-08-08T23:57:10;1.08;;;0.70;;
